Time;durP1;ratioP1;P1;durP2;ratioP2;P2;SDS_P1;SDS_P2;PMS_P1;PMS_P2;Temp;Humidity;BMP_temperature;BMP_pressure;BME280_temperature;BME280_humidity;BME280_pressure;Samples;Min_cycle;Max_cycle;Signal;HPM_P1;HPM_P2
2023/01/17 00:01:15;;;;;;;5.30;0.90;;;4.90;99.90;;;;;;5082333;28;20577;-43
2023/01/17 00:11:59;;;;;;;3.47;0.75;;;4.90;99.90;;;;;;5082865;28;20403;-44
2023/01/17 00:14:26;;;;;;;2.47;0.70;;;4.90;99.90;;;;;;5082514;28;20784;-43
2023/01/17 00:16:51;;;;;;;2.90;0.52;;;4.90;99.90;;;;;;5081877;28;20126;-43
2023/01/17 01:34:03;;;;;;;1.23;0.60;;;4.30;99.90;;;;;;5080248;28;20051;-42
2023/01/17 01:36:29;;;;;;;1.58;0.55;;;4.20;99.90;;;;;;5081103;28;20475;-43
2023/01/17 01:38:55;;;;;;;1.00;0.50;;;4.00;99.90;;;;;;5082035;28;20668;-43
2023/01/17 01:41:21;;;;;;;1.30;0.60;;;3.90;99.90;;;;;;5080789;28;20065;-43
2023/01/17 01:43:49;;;;;;;0.75;0.50;;;3.80;99.90;;;;;;5081512;28;20035;-43
2023/01/17 01:46:37;;;;;;;0.98;0.38;;;3.60;99.90;;;;;;5081335;28;20185;-42
2023/01/17 01:49:23;;;;;;;1.05;0.40;;;3.50;99.90;;;;;;5079785;28;20063;-44
2023/01/17 01:51:57;;;;;;;0.70;0.40;;;3.40;99.90;;;;;;5081395;28;20383;-43
2023/01/17 01:54:29;;;;;;;0.85;0.40;;;3.30;99.90;;;;;;5070598;28;20044;-44
2023/01/17 01:56:57;;;;;;;0.60;0.40;;;3.30;99.90;;;;;;5082074;28;20031;-43
2023/01/17 01:59:24;;;;;;;0.45;0.45;;;3.30;99.90;;;;;;5081098;28;20490;-43
2023/01/17 02:01:51;;;;;;;1.58;0.50;;;3.20;99.90;;;;;;5080673;28;20024;-43
2023/01/17 02:04:19;;;;;;;0.60;0.60;;;3.30;99.90;;;;;;5081173;28;20957;-43
2023/01/17 02:06:49;;;;;;;0.88;0.88;;;3.20;99.90;;;;;;5081903;28;20059;-43
2023/01/17 02:09:17;;;;;;;2.83;1.08;;;3.20;99.90;;;;;;5079381;28;20095;-43
2023/01/17 02:11:44;;;;;;;0.55;0.43;;;3.20;99.90;;;;;;5081934;28;20519;-44
2023/01/17 02:14:17;;;;;;;1.10;0.57;;;3.20;99.90;;;;;;5080544;28;20028;-44
2023/01/17 02:17:11;;;;;;;1.35;0.60;;;3.20;99.90;;;;;;5080592;28;20038;-43
2023/01/17 02:20:08;;;;;;;0.93;0.70;;;3.20;99.90;;;;;;5080066;28;20734;-43
2023/01/17 02:22:52;;;;;;;2.60;1.13;;;3.10;99.90;;;;;;5080228;28;20032;-42
2023/01/17 02:25:29;;;;;;;1.75;0.73;;;3.10;99.90;;;;;;5080976;28;20020;-44
2023/01/17 02:28:13;;;;;;;0.85;0.80;;;3.10;99.90;;;;;;5084618;28;20400;-42
2023/01/17 02:30:44;;;;;;;0.80;0.60;;;3.00;99.90;;;;;;5074280;28;20070;-43
2023/01/17 02:33:38;;;;;;;0.60;0.60;;;3.00;99.90;;;;;;5084240;28;20040;-42
2023/01/17 02:36:17;;;;;;;2.25;0.80;;;3.00;99.90;;;;;;5076181;28;20079;-43
2023/01/17 02:38:56;;;;;;;1.38;0.70;;;3.00;99.90;;;;;;5084523;28;20028;-43
2023/01/17 02:41:29;;;;;;;0.73;0.50;;;3.00;99.90;;;;;;5084680;28;20038;-43
2023/01/17 02:43:55;;;;;;;1.58;0.60;;;3.00;99.90;;;;;;5083375;28;20781;-44
2023/01/17 02:46:21;;;;;;;1.38;0.60;;;3.00;99.90;;;;;;5083797;28;20062;-43
2023/01/17 02:48:47;;;;;;;1.08;0.57;;;3.00;99.90;;;;;;5084173;28;20585;-43
2023/01/17 02:51:38;;;;;;;0.68;0.50;;;3.10;99.90;;;;;;5083290;28;20028;-42
2023/01/17 02:54:26;;;;;;;1.00;0.57;;;3.10;99.90;;;;;;5083897;28;20407;-43
2023/01/17 02:57:19;;;;;;;0.80;0.60;;;3.20;99.90;;;;;;5084532;28;20040;-44
2023/01/17 02:59:45;;;;;;;;;;;3.20;99.90;;;;;;5083816;28;20031;-44
2023/01/17 03:02:28;;;;;;;2.60;0.50;;;3.30;99.90;;;;;;5083690;28;19908;-43
2023/01/17 03:05:12;;;;;;;0.63;0.43;;;3.30;99.90;;;;;;5083705;28;20620;-42
2023/01/17 03:07:40;;;;;;;0.40;0.40;;;3.30;99.90;;;;;;5084159;28;20020;-43
2023/01/17 03:10:08;;;;;;;0.65;0.52;;;3.30;99.90;;;;;;5083209;28;20035;-43
2023/01/17 03:12:36;;;;;;;0.90;0.50;;;3.20;99.90;;;;;;5083785;28;20016;-42
2023/01/17 03:15:02;;;;;;;1.00;0.65;;;3.10;99.90;;;;;;5083499;28;20031;-43
2023/01/17 03:17:31;;;;;;;2.40;0.80;;;3.10;99.90;;;;;;5084446;28;20028;-42
2023/01/17 03:19:57;;;;;;;1.42;0.68;;;3.10;99.90;;;;;;5083211;28;20020;-43
2023/01/17 03:22:23;;;;;;;0.60;0.60;;;3.00;99.90;;;;;;5083708;28;20028;-43
2023/01/17 03:24:49;;;;;;;0.85;0.70;;;3.10;99.90;;;;;;5084118;28;20031;-43
2023/01/17 03:27:14;;;;;;;0.85;0.80;;;3.10;99.90;;;;;;5082897;28;20047;-43
2023/01/17 03:29:40;;;;;;;1.00;0.73;;;3.10;99.90;;;;;;5083546;28;20185;-43
2023/01/17 03:32:06;;;;;;;1.40;0.60;;;3.00;99.90;;;;;;5083324;28;20116;-43
2023/01/17 03:34:31;;;;;;;1.10;0.80;;;3.00;99.90;;;;;;5083432;28;20134;-43
2023/01/17 03:36:57;;;;;;;3.00;0.98;;;2.90;99.90;;;;;;5082129;28;20032;-45
2023/01/17 03:39:22;;;;;;;1.10;0.90;;;2.90;99.90;;;;;;5083163;28;20024;-42
2023/01/17 03:41:48;;;;;;;1.75;1.05;;;2.80;99.90;;;;;;5082391;28;20032;-43
2023/01/17 03:44:14;;;;;;;1.15;0.70;;;2.70;99.90;;;;;;5082743;28;20036;-43
2023/01/17 03:46:39;;;;;;;1.63;0.70;;;2.70;99.90;;;;;;5082898;28;20042;-44
2023/01/17 03:49:05;;;;;;;1.25;0.75;;;2.70;99.90;;;;;;5083084;28;20104;-44
2023/01/17 03:51:30;;;;;;;2.95;1.05;;;2.70;99.90;;;;;;5082723;28;20024;-43
2023/01/17 03:53:56;;;;;;;0.80;0.80;;;2.60;99.90;;;;;;5082247;28;20066;-43
2023/01/17 03:56:21;;;;;;;1.23;0.90;;;2.60;99.90;;;;;;5082497;28;20490;-42
2023/01/17 03:58:47;;;;;;;1.75;0.90;;;2.60;99.90;;;;;;5083247;28;20080;-43
2023/01/17 04:01:13;;;;;;;1.40;0.63;;;2.60;99.90;;;;;;5082204;28;20463;-43
2023/01/17 04:03:38;;;;;;;2.47;0.70;;;2.50;99.90;;;;;;5082369;28;20053;-43
2023/01/17 04:06:04;;;;;;;3.08;0.65;;;2.50;99.90;;;;;;5081899;28;20016;-43
2023/01/17 04:08:30;;;;;;;3.17;0.60;;;2.50;99.90;;;;;;5082319;28;20032;-43
2023/01/17 04:10:55;;;;;;;1.55;0.68;;;2.40;99.90;;;;;;5082701;28;20430;-43
2023/01/17 04:13:21;;;;;;;0.50;0.50;;;2.40;99.90;;;;;;5082386;28;20024;-42
2023/01/17 04:15:49;;;;;;;1.88;0.43;;;2.40;99.90;;;;;;5082062;28;20543;-43
2023/01/17 04:18:17;;;;;;;1.35;0.50;;;2.40;99.90;;;;;;5081828;28;20024;-43
2023/01/17 04:20:42;;;;;;;0.90;0.43;;;2.50;99.90;;;;;;5083113;28;20036;-43
2023/01/17 04:23:08;;;;;;;1.45;0.50;;;2.50;99.90;;;;;;5080976;28;20616;-44
2023/01/17 04:25:34;;;;;;;1.15;0.43;;;2.50;99.90;;;;;;5082620;28;20026;-43
2023/01/17 04:28:02;;;;;;;2.13;0.47;;;2.40;99.90;;;;;;5081538;28;20020;-43
2023/01/17 04:30:28;;;;;;;2.03;0.57;;;2.40;99.90;;;;;;5082471;28;20408;-43
2023/01/17 04:32:57;;;;;;;4.32;0.65;;;2.50;99.90;;;;;;5082201;28;20031;-43
2023/01/17 04:35:23;;;;;;;2.50;0.90;;;2.40;99.90;;;;;;5080811;28;20171;-43
2023/01/17 04:37:49;;;;;;;4.60;0.98;;;2.40;99.90;;;;;;5069932;28;20044;-43
2023/01/17 04:40:15;;;;;;;2.83;0.93;;;2.50;99.90;;;;;;5081680;28;20513;-42
2023/01/17 04:42:43;;;;;;;1.90;1.27;;;2.50;99.90;;;;;;5081569;28;20104;-43
2023/01/17 04:45:10;;;;;;;3.60;1.10;;;2.50;99.90;;;;;;5081024;28;20038;-43
2023/01/17 04:47:35;;;;;;;3.67;1.20;;;2.50;99.90;;;;;;5082262;28;20020;-43
2023/01/17 04:50:01;;;;;;;1.10;0.85;;;2.50;99.90;;;;;;5080345;28;20020;-43
2023/01/17 04:52:26;;;;;;;4.25;1.05;;;2.50;99.90;;;;;;5082172;28;20024;-43
2023/01/17 04:54:52;;;;;;;1.73;1.05;;;2.40;99.90;;;;;;5081932;28;20400;-43
2023/01/17 04:57:21;;;;;;;4.63;1.20;;;2.40;99.90;;;;;;5081566;28;20396;-42
2023/01/17 04:59:46;;;;;;;2.17;0.95;;;2.40;99.90;;;;;;5081553;28;20794;-42
2023/01/17 05:02:15;;;;;;;3.70;1.27;;;2.50;99.90;;;;;;5081593;28;20036;-43
2023/01/17 05:04:40;;;;;;;3.28;1.02;;;2.50;99.90;;;;;;5081186;28;20043;-43
2023/01/17 05:07:06;;;;;;;3.33;1.20;;;2.40;99.90;;;;;;5081763;28;20024;-43
2023/01/17 05:09:32;;;;;;;2.78;1.30;;;2.40;99.90;;;;;;5081742;28;20032;-44
2023/01/17 05:11:58;;;;;;;2.85;1.30;;;2.40;99.90;;;;;;5080862;28;20036;-43
2023/01/17 05:14:26;;;;;;;1.90;1.17;;;2.40;99.90;;;;;;5081506;28;20596;-43
2023/01/17 05:16:53;;;;;;;5.10;2.20;;;2.40;99.90;;;;;;5081798;28;20028;-43
2023/01/17 05:19:18;;;;;;;3.95;1.20;;;2.40;99.90;;;;;;5080543;28;20143;-43
2023/01/17 05:21:44;;;;;;;2.03;1.30;;;2.40;99.90;;;;;;5082160;28;20065;-42
2023/01/17 05:24:09;;;;;;;4.38;1.20;;;2.40;99.90;;;;;;5081289;28;20135;-42
2023/01/17 05:26:35;;;;;;;3.90;1.20;;;2.40;99.90;;;;;;5081653;28;20031;-43
2023/01/17 05:29:00;;;;;;;2.58;1.10;;;2.50;99.90;;;;;;5080915;28;20032;-43
2023/01/17 05:31:26;;;;;;;1.27;1.17;;;2.50;99.90;;;;;;5081637;28;20027;-42
2023/01/17 05:33:51;;;;;;;2.90;1.58;;;2.50;99.90;;;;;;5080942;28;20173;-43
2023/01/17 05:36:17;;;;;;;3.22;1.30;;;2.60;99.90;;;;;;5081426;28;20016;-43
2023/01/17 05:38:42;;;;;;;2.13;1.20;;;2.60;99.90;;;;;;5081632;28;20036;-42
2023/01/17 05:41:08;;;;;;;2.10;1.45;;;2.60;99.90;;;;;;5079772;28;20028;-42
2023/01/17 05:43:33;;;;;;;2.10;1.38;;;2.60;99.90;;;;;;5081829;28;20064;-42
2023/01/17 05:45:59;;;;;;;3.88;1.38;;;2.50;99.90;;;;;;5080603;28;20047;-43
2023/01/17 05:48:24;;;;;;;2.22;1.80;;;2.50;99.90;;;;;;5080938;28;20032;-43
2023/01/17 05:50:51;;;;;;;3.20;1.52;;;2.50;99.90;;;;;;5082105;28;20059;-43
2023/01/17 05:53:16;;;;;;;1.50;1.40;;;2.50;99.90;;;;;;5080300;28;20032;-43
2023/01/17 05:55:42;;;;;;;4.25;1.80;;;2.50;99.90;;;;;;5082039;28;20039;-43
2023/01/17 05:58:15;;;;;;;3.80;1.60;;;2.50;99.90;;;;;;5081884;28;20051;-43
2023/01/17 06:00:41;;;;;;;2.92;1.52;;;2.50;99.90;;;;;;5082328;28;20035;-42
2023/01/17 06:03:06;;;;;;;2.33;1.17;;;2.50;99.90;;;;;;5084535;28;20428;-42
2023/01/17 06:05:32;;;;;;;1.40;1.30;;;2.40;99.90;;;;;;5084789;28;20479;-42
2023/01/17 06:07:58;;;;;;;3.67;1.42;;;2.40;99.90;;;;;;5084104;28;20032;-43
2023/01/17 06:10:28;;;;;;;1.88;1.38;;;2.30;99.90;;;;;;5085432;28;20032;-43
2023/01/17 06:13:15;;;;;;;2.45;1.30;;;2.30;99.90;;;;;;5085304;28;20024;-43
2023/01/17 06:15:41;;;;;;;1.77;1.35;;;2.20;99.90;;;;;;5084723;28;20024;-43
2023/01/17 06:18:12;;;;;;;4.60;1.40;;;2.20;99.90;;;;;;5083935;28;20027;-43
2023/01/17 06:20:38;;;;;;;2.13;1.30;;;2.20;99.90;;;;;;5085453;28;20016;-42
2023/01/17 06:23:10;;;;;;;2.35;1.27;;;2.20;99.90;;;;;;5084290;28;20089;-43
2023/01/17 06:25:42;;;;;;;4.63;1.30;;;2.20;99.90;;;;;;5085259;28;20054;-42
2023/01/17 06:28:08;;;;;;;1.73;1.17;;;2.10;99.90;;;;;;5084395;28;20016;-42
2023/01/17 06:30:34;;;;;;;3.72;1.50;;;2.10;99.90;;;;;;5084455;28;20088;-44
2023/01/17 06:33:00;;;;;;;2.08;1.00;;;2.10;99.90;;;;;;5083964;28;20534;-43
2023/01/17 06:35:25;;;;;;;3.13;1.10;;;2.00;99.90;;;;;;5084748;28;20142;-43
2023/01/17 06:37:54;;;;;;;1.65;1.05;;;2.00;99.90;;;;;;5084209;28;20416;-43
2023/01/17 06:40:20;;;;;;;2.08;1.02;;;2.00;99.90;;;;;;5084252;28;20601;-43
2023/01/17 06:42:46;;;;;;;2.90;1.20;;;2.00;99.90;;;;;;5083320;28;20020;-42
2023/01/17 06:45:11;;;;;;;3.95;1.60;;;1.90;99.90;;;;;;5084158;28;20047;-43
2023/01/17 06:47:38;;;;;;;3.92;1.35;;;1.90;99.90;;;;;;5085102;28;20053;-43
2023/01/17 06:50:05;;;;;;;2.13;1.13;;;2.00;99.90;;;;;;5083219;28;20032;-43
2023/01/17 06:52:30;;;;;;;2.80;1.25;;;1.90;99.90;;;;;;5084267;28;20081;-43
2023/01/17 06:54:56;;;;;;;3.70;1.13;;;1.90;99.90;;;;;;5083946;28;20024;-43
2023/01/17 06:57:21;;;;;;;4.43;1.70;;;1.90;99.90;;;;;;5082714;28;20020;-43
2023/01/17 06:59:47;;;;;;;3.67;1.60;;;1.90;99.90;;;;;;5084698;28;20030;-43
2023/01/17 07:02:13;;;;;;;4.18;1.50;;;2.00;99.90;;;;;;5083989;28;20483;-43
2023/01/17 07:04:38;;;;;;;2.90;1.30;;;2.00;99.90;;;;;;5083882;28;20446;-43
2023/01/17 07:07:04;;;;;;;2.53;1.40;;;2.00;99.90;;;;;;5096131;28;20027;-43
2023/01/17 07:09:30;;;;;;;3.47;1.50;;;2.10;99.90;;;;;;5084414;28;20463;-44
2023/01/17 07:12:00;;;;;;;2.40;1.50;;;2.10;99.90;;;;;;5082826;28;20027;-44
2023/01/17 07:14:27;;;;;;;5.53;1.35;;;2.20;99.90;;;;;;5082958;28;20051;-44
2023/01/17 07:16:53;;;;;;;3.92;1.80;;;2.20;99.90;;;;;;5083796;28;20032;-43
2023/01/17 07:19:19;;;;;;;4.00;1.63;;;2.20;99.90;;;;;;5081232;28;20044;-43
2023/01/17 07:21:45;;;;;;;3.47;1.50;;;2.30;99.90;;;;;;5083551;28;20112;-44
2023/01/17 07:24:11;;;;;;;1.58;1.48;;;2.30;99.90;;;;;;5081893;28;20086;-44
2023/01/17 07:26:38;;;;;;;3.67;1.60;;;2.30;99.90;;;;;;5082158;28;20070;-43
2023/01/17 07:29:04;;;;;;;3.15;1.80;;;2.30;99.90;;;;;;5082138;28;20031;-42
2023/01/17 07:31:34;;;;;;;3.42;1.73;;;2.40;99.90;;;;;;5082365;28;20365;-43
2023/01/17 07:34:00;;;;;;;2.92;1.50;;;2.40;99.90;;;;;;5081177;28;20063;-44
2023/01/17 07:36:25;;;;;;;2.65;1.50;;;2.40;99.90;;;;;;5082754;28;20462;-43
2023/01/17 07:38:51;;;;;;;4.28;1.52;;;2.50;99.90;;;;;;5081468;28;20016;-43
2023/01/17 07:41:17;;;;;;;3.08;1.40;;;2.50;99.90;;;;;;5081904;28;20063;-44
2023/01/17 07:43:42;;;;;;;4.40;1.90;;;2.50;99.90;;;;;;5083002;28;20060;-43
2023/01/17 07:46:08;;;;;;;3.53;1.85;;;2.50;99.90;;;;;;5082264;28;20022;-44
2023/01/17 07:48:34;;;;;;;2.15;1.55;;;2.50;99.90;;;;;;5083488;28;20016;-44
2023/01/17 07:50:59;;;;;;;2.80;2.00;;;2.50;99.90;;;;;;5082337;28;20123;-44
2023/01/17 07:53:27;;;;;;;3.70;1.80;;;2.50;99.90;;;;;;5083145;28;20039;-43
2023/01/17 07:55:54;;;;;;;3.90;1.80;;;2.40;99.90;;;;;;5083170;28;20157;-44
2023/01/17 07:58:20;;;;;;;4.47;2.05;;;2.40;99.90;;;;;;5083002;28;20027;-43
2023/01/17 08:00:46;;;;;;;4.78;1.75;;;2.30;99.90;;;;;;5082650;28;20035;-43
2023/01/17 08:03:14;;;;;;;2.67;1.67;;;2.30;99.90;;;;;;5083062;28;20124;-44
2023/01/17 08:05:51;;;;;;;2.80;2.13;;;2.20;99.90;;;;;;5083592;28;20020;-45
2023/01/17 08:08:17;;;;;;;2.58;1.98;;;2.20;99.90;;;;;;5062050;28;20024;-43
2023/01/17 08:10:42;;;;;;;4.32;2.10;;;2.10;99.90;;;;;;5078422;28;20479;-43
2023/01/17 08:13:08;;;;;;;5.65;2.13;;;2.10;99.90;;;;;;5082434;28;20036;-43
2023/01/17 08:15:33;;;;;;;4.35;2.45;;;2.20;99.90;;;;;;5082064;28;20027;-43
2023/01/17 08:17:59;;;;;;;4.68;2.50;;;2.10;99.90;;;;;;5082445;28;20032;-43
2023/01/17 08:20:25;;;;;;;3.78;2.60;;;2.10;99.90;;;;;;5082367;28;20031;-43
2023/01/17 08:22:53;;;;;;;3.20;2.47;;;2.10;99.90;;;;;;5081526;28;20738;-43
2023/01/17 08:25:19;;;;;;;5.18;2.85;;;2.00;99.90;;;;;;5081489;28;20024;-44
2023/01/17 08:27:44;;;;;;;4.57;2.80;;;2.00;99.90;;;;;;5082847;28;20422;-44
2023/01/17 08:30:10;;;;;;;5.07;3.17;;;2.00;99.90;;;;;;5079254;28;20467;-43
2023/01/17 08:32:39;;;;;;;4.38;3.28;;;2.00;99.90;;;;;;5081975;28;20028;-43
2023/01/17 08:35:05;;;;;;;7.28;3.45;;;2.00;99.90;;;;;;5080835;28;20133;-43
2023/01/17 08:37:31;;;;;;;5.47;3.42;;;2.10;99.90;;;;;;5082420;28;20475;-43
2023/01/17 08:39:57;;;;;;;4.75;3.25;;;2.10;99.90;;;;;;5081359;28;20024;-43
2023/01/17 08:42:22;;;;;;;6.78;3.75;;;2.10;99.90;;;;;;5081286;28;20054;-43
2023/01/17 08:44:48;;;;;;;5.18;3.53;;;2.10;99.90;;;;;;5082234;28;20040;-43
2023/01/17 08:47:13;;;;;;;9.38;4.68;;;2.20;99.90;;;;;;5081458;28;20027;-44
2023/01/17 08:49:39;;;;;;;6.35;3.88;;;2.20;99.90;;;;;;5081734;28;20047;-44
2023/01/17 08:52:05;;;;;;;6.95;4.50;;;2.20;99.90;;;;;;5081427;28;20054;-44
2023/01/17 08:54:30;;;;;;;6.85;4.25;;;2.30;99.90;;;;;;5081786;28;20039;-43
2023/01/17 08:56:56;;;;;;;6.13;4.88;;;2.30;99.90;;;;;;5081472;28;20020;-43
2023/01/17 08:59:21;;;;;;;9.80;5.78;;;2.40;99.90;;;;;;5081470;28;20031;-43
2023/01/17 09:01:47;;;;;;;8.57;5.75;;;2.50;99.90;;;;;;5081189;28;20051;-43
2023/01/17 09:04:13;;;;;;;8.82;5.80;;;2.60;99.90;;;;;;5080117;28;20683;-44
2023/01/17 09:06:44;;;;;;;8.98;6.35;;;2.60;99.90;;;;;;5082172;28;20040;-44
2023/01/17 09:09:10;;;;;;;9.48;6.53;;;2.70;99.90;;;;;;5080996;28;20062;-43
2023/01/17 09:11:36;;;;;;;12.23;7.10;;;2.80;99.90;;;;;;5081571;28;20028;-42
2023/01/17 09:14:02;;;;;;;13.88;8.43;;;2.80;99.90;;;;;;5080707;28;20506;-43
2023/01/17 09:16:28;;;;;;;12.25;7.60;;;2.80;99.90;;;;;;5081798;28;20036;-43
2023/01/17 09:18:56;;;;;;;11.55;7.68;;;2.80;99.90;;;;;;5080755;28;20444;-42
2023/01/17 09:21:21;;;;;;;11.98;8.40;;;2.80;99.90;;;;;;5081178;28;20032;-43
2023/01/17 09:23:47;;;;;;;12.50;8.20;;;2.80;99.90;;;;;;5081549;28;20035;-43
2023/01/17 09:26:20;;;;;;;12.45;7.75;;;2.70;99.90;;;;;;5080790;28;20093;-42
2023/01/17 09:28:46;;;;;;;;;;;2.70;99.90;;;;;;5042590;28;20039;-43
2023/01/17 09:31:11;;;;;;;11.40;7.10;;;2.80;99.90;;;;;;5082738;28;19908;-44
2023/01/17 09:33:37;;;;;;;8.02;7.07;;;2.70;99.90;;;;;;5081738;28;20055;-43
2023/01/17 09:36:04;;;;;;;11.32;7.43;;;2.70;99.90;;;;;;5085058;28;20603;-43
2023/01/17 09:38:30;;;;;;;10.80;7.43;;;2.70;99.90;;;;;;5085220;28;20468;-44
2023/01/17 09:40:57;;;;;;;12.05;8.48;;;2.70;99.90;;;;;;5085331;28;20139;-42
2023/01/17 09:43:58;;;;;;;12.73;8.07;;;2.70;99.90;;;;;;5083845;28;20086;-43
2023/01/17 09:46:30;;;;;;;10.43;8.32;;;2.70;99.90;;;;;;5050605;28;20075;-43
2023/01/17 09:48:58;;;;;;;12.77;8.75;;;2.70;99.90;;;;;;5080498;28;20027;-43
2023/01/17 09:51:24;;;;;;;12.13;7.88;;;2.70;99.90;;;;;;5085417;28;20498;-43
2023/01/17 09:53:52;;;;;;;9.32;7.82;;;2.70;99.90;;;;;;5085431;28;20028;-43
2023/01/17 09:56:28;;;;;;;11.07;8.10;;;2.70;99.90;;;;;;5085038;28;20016;-43
2023/01/17 09:59:07;;;;;;;9.65;7.65;;;2.70;99.90;;;;;;5085866;28;20051;-43
2023/01/17 10:01:42;;;;;;;10.38;7.30;;;2.70;99.90;;;;;;5085564;28;20036;-43
2023/01/17 10:04:30;;;;;;;10.93;8.10;;;2.70;99.90;;;;;;5084024;28;20070;-43
2023/01/17 10:06:55;;;;;;;8.98;7.10;;;2.70;99.90;;;;;;5085093;28;20111;-42
2023/01/17 10:10:04;;;;;;;8.57;6.70;;;2.80;99.90;;;;;;5084410;28;20417;-43
2023/01/17 10:12:40;;;;;;;9.07;6.25;;;2.80;99.90;;;;;;5065160;28;20447;-43
2023/01/17 10:15:34;;;;;;;7.93;6.30;;;2.80;99.90;;;;;;5081395;28;20024;-43
2023/01/17 10:18:18;;;;;;;9.20;6.13;;;2.80;99.90;;;;;;5084952;28;20111;-43
2023/01/17 10:20:55;;;;;;;9.27;5.78;;;2.70;99.90;;;;;;5084323;28;20027;-42
2023/01/17 10:23:27;;;;;;;8.88;6.32;;;2.80;99.90;;;;;;5083864;28;20472;-43
2023/01/17 10:26:00;;;;;;;8.93;6.20;;;2.70;99.90;;;;;;5084222;28;20046;-43
2023/01/17 10:28:34;;;;;;;8.75;6.00;;;2.70;99.90;;;;;;5084956;28;20050;-44
2023/01/17 10:31:07;;;;;;;7.78;5.63;;;2.80;99.90;;;;;;5083564;28;20024;-44
2023/01/17 10:33:39;;;;;;;6.65;5.60;;;2.80;99.90;;;;;;5084114;28;20801;-42
2023/01/17 10:36:14;;;;;;;7.07;5.97;;;2.80;99.90;;;;;;5083954;28;20024;-43
2023/01/17 10:38:45;;;;;;;7.00;5.60;;;2.80;99.90;;;;;;5085313;28;20028;-44
2023/01/17 10:41:33;;;;;;;7.38;4.78;;;2.90;99.90;;;;;;5084193;28;20360;-44
2023/01/17 10:44:08;;;;;;;7.35;5.50;;;2.90;99.90;;;;;;5084271;28;20077;-42
2023/01/17 10:46:42;;;;;;;8.55;5.60;;;3.00;99.90;;;;;;5083569;28;20031;-43
2023/01/17 10:49:16;;;;;;;7.40;5.00;;;3.00;99.90;;;;;;5083278;28;20062;-42
2023/01/17 10:52:03;;;;;;;7.93;5.30;;;3.00;99.90;;;;;;5083516;28;20460;-43
2023/01/17 10:54:32;;;;;;;6.43;5.10;;;3.10;99.90;;;;;;5084917;28;20107;-43
2023/01/17 10:56:58;;;;;;;4.90;4.40;;;3.10;99.90;;;;;;5083816;28;20017;-44
2023/01/17 10:59:29;;;;;;;5.47;4.70;;;3.10;99.90;;;;;;5084090;28;20024;-43
2023/01/17 11:01:55;;;;;;;6.38;5.15;;;3.10;99.90;;;;;;5084582;28;20110;-42
2023/01/17 11:04:35;;;;;;;5.28;4.20;;;3.20;99.90;;;;;;5083075;28;20071;-43
2023/01/17 11:07:19;;;;;;;6.10;4.82;;;3.20;99.90;;;;;;5083713;28;20024;-43
2023/01/17 11:09:48;;;;;;;5.72;4.10;;;3.20;99.90;;;;;;5083811;28;20824;-43
2023/01/17 11:12:18;;;;;;;6.13;4.10;;;3.20;99.90;;;;;;5083102;28;20099;-43
2023/01/17 11:15:05;;;;;;;4.82;4.20;;;3.30;99.90;;;;;;5084374;28;20387;-43
2023/01/17 11:17:32;;;;;;;8.35;4.50;;;3.30;99.90;;;;;;5083378;28;20047;-42
2023/01/17 11:20:18;;;;;;;5.82;3.92;;;3.30;99.90;;;;;;5084108;28;20028;-43
2023/01/17 11:23:02;;;;;;;5.60;4.00;;;3.30;99.90;;;;;;5083600;28;20521;-42
2023/01/17 11:25:32;;;;;;;4.13;3.53;;;3.30;99.90;;;;;;5082409;28;20444;-43
2023/01/17 11:28:24;;;;;;;6.70;4.70;;;3.30;99.90;;;;;;5083468;28;20020;-44
2023/01/17 11:30:51;;;;;;;6.72;4.38;;;3.30;99.90;;;;;;5084489;28;20016;-42
2023/01/17 11:33:44;;;;;;;6.25;4.10;;;3.30;99.90;;;;;;5083082;28;20031;-43
2023/01/17 11:36:27;;;;;;;4.85;3.83;;;3.30;99.90;;;;;;5082469;28;20475;-43
2023/01/17 11:39:01;;;;;;;5.38;4.00;;;3.30;99.90;;;;;;5072158;28;20039;-43
2023/01/17 11:41:33;;;;;;;4.07;3.40;;;3.40;99.90;;;;;;5083556;28;20035;-42
2023/01/17 11:44:00;;;;;;;4.50;3.47;;;3.40;99.90;;;;;;5071599;28;20523;-44
2023/01/17 11:46:30;;;;;;;4.43;4.00;;;3.40;99.90;;;;;;5082656;28;20020;-42
2023/01/17 11:48:58;;;;;;;5.40;3.72;;;3.50;99.90;;;;;;5083352;28;20028;-43
2023/01/17 11:51:26;;;;;;;6.63;3.67;;;3.50;99.90;;;;;;5083390;28;20020;-44
2023/01/17 11:53:56;;;;;;;5.72;4.00;;;3.50;99.90;;;;;;5082533;28;20020;-42
2023/01/17 11:56:31;;;;;;;5.30;3.95;;;3.60;99.90;;;;;;5082763;28;20946;-44
2023/01/17 11:59:23;;;;;;;3.97;3.40;;;3.60;99.90;;;;;;5081077;28;20020;-43
2023/01/17 12:02:00;;;;;;;5.38;3.65;;;3.60;99.90;;;;;;5083041;28;20114;-44
2023/01/17 12:05:00;;;;;;;4.07;3.40;;;3.60;99.90;;;;;;5083627;28;20071;-43
2023/01/17 12:07:44;;;;;;;5.10;3.25;;;3.60;99.90;;;;;;5082714;28;20036;-42
2023/01/17 12:11:06;;;;;;;4.10;3.17;;;3.60;99.90;;;;;;5082558;28;20690;-43
2023/01/17 12:13:59;;;;;;;5.45;3.40;;;3.60;99.90;;;;;;4999270;28;20069;-43
2023/01/17 12:16:50;;;;;;;3.53;2.70;;;3.50;99.90;;;;;;4980137;28;20031;-43
2023/01/17 12:19:44;;;;;;;3.55;3.17;;;3.50;99.90;;;;;;5074156;28;20061;-43
2023/01/17 12:22:51;;;;;;;4.60;2.80;;;3.50;99.90;;;;;;5081579;28;20067;-44
2023/01/17 12:25:19;;;;;;;4.63;2.78;;;3.40;99.90;;;;;;5081804;28;20066;-43
2023/01/17 12:28:24;;;;;;;4.75;3.30;;;3.40;99.90;;;;;;5082250;28;20474;-44
2023/01/17 12:31:00;;;;;;;4.28;3.03;;;3.40;99.90;;;;;;5074024;28;20614;-42
2023/01/17 12:33:44;;;;;;;3.83;3.13;;;3.50;99.90;;;;;;5081652;28;20044;-43
2023/01/17 12:36:24;;;;;;;5.05;3.40;;;3.50;99.90;;;;;;5081509;28;20038;-43
2023/01/17 12:38:50;;;;;;;4.80;3.05;;;3.50;99.90;;;;;;5082178;28;20053;-43
2023/01/17 12:41:35;;;;;;;4.20;3.38;;;3.60;99.90;;;;;;5081160;28;20032;-43
2023/01/17 12:44:12;;;;;;;4.30;3.70;;;3.60;99.90;;;;;;5081515;28;20566;-43
2023/01/17 12:46:47;;;;;;;4.95;3.30;;;3.60;99.90;;;;;;5082244;28;20796;-43
2023/01/17 12:49:22;;;;;;;3.72;3.10;;;3.60;99.90;;;;;;5080392;28;20043;-44
2023/01/17 12:51:54;;;;;;;4.97;3.45;;;3.70;99.90;;;;;;5082281;28;20020;-43
2023/01/17 12:54:28;;;;;;;4.10;3.67;;;3.70;99.90;;;;;;5081421;28;20028;-43
2023/01/17 12:57:01;;;;;;;5.53;4.15;;;3.80;99.90;;;;;;5081092;28;20039;-44
2023/01/17 12:59:51;;;;;;;4.68;3.45;;;3.80;99.90;;;;;;5081609;28;20340;-43
2023/01/17 13:02:36;;;;;;;4.85;3.53;;;3.90;99.90;;;;;;5080401;28;20859;-43
2023/01/17 13:05:22;;;;;;;5.65;3.35;;;3.90;99.90;;;;;;5080789;28;20794;-42
2023/01/17 13:08:16;;;;;;;4.07;3.10;;;3.90;99.90;;;;;;5081966;28;20032;-44
2023/01/17 13:10:50;;;;;;;3.83;3.00;;;4.00;99.90;;;;;;5081712;28;20036;-43
2023/01/17 13:13:22;;;;;;;3.70;3.22;;;4.00;99.90;;;;;;5061740;28;20024;-43
2023/01/17 13:15:54;;;;;;;4.90;3.20;;;4.00;99.90;;;;;;5077169;28;20036;-43
2023/01/17 13:18:24;;;;;;;3.95;2.67;;;4.00;99.90;;;;;;5081311;28;20020;-43
2023/01/17 13:21:26;;;;;;;4.13;3.30;;;4.10;99.90;;;;;;5082248;28;20103;-42
2023/01/17 13:23:58;;;;;;;5.80;3.72;;;4.10;99.90;;;;;;5061954;28;20377;-43
2023/01/17 13:26:30;;;;;;;5.32;3.67;;;4.10;99.90;;;;;;5078647;28;20036;-43
2023/01/17 13:29:23;;;;;;;4.95;3.42;;;4.10;99.90;;;;;;5082770;28;20088;-44
2023/01/17 13:32:19;;;;;;;4.70;2.95;;;4.10;99.90;;;;;;5081163;28;20047;-44
2023/01/17 13:35:06;;;;;;;3.70;3.13;;;4.10;99.90;;;;;;5081436;28;20078;-44
2023/01/17 13:37:51;;;;;;;4.75;2.70;;;4.10;99.90;;;;;;5080706;28;20051;-43
2023/01/17 13:40:32;;;;;;;4.47;3.05;;;4.10;99.90;;;;;;5080983;28;20089;-44
2023/01/17 13:43:03;;;;;;;3.78;2.90;;;4.10;99.90;;;;;;5070343;28;20036;-43
2023/01/17 13:45:30;;;;;;;4.43;2.70;;;4.10;99.90;;;;;;5080808;28;20040;-44
2023/01/17 13:48:11;;;;;;;4.97;2.80;;;4.10;99.90;;;;;;5081471;28;20111;-44
2023/01/17 13:50:39;;;;;;;2.97;2.72;;;4.10;99.90;;;;;;5081267;28;20039;-44
2023/01/17 13:53:33;;;;;;;2.50;2.30;;;4.10;99.90;;;;;;5080483;28;20020;-43
2023/01/17 13:56:17;;;;;;;3.22;2.05;;;4.10;99.90;;;;;;5081313;28;20073;-44
2023/01/17 13:58:56;;;;;;;1.95;1.75;;;4.10;99.90;;;;;;5071813;28;20036;-43
2023/01/17 14:01:22;;;;;;;3.17;2.05;;;4.10;99.90;;;;;;5081309;28;20172;-43
2023/01/17 14:03:50;;;;;;;3.13;1.80;;;4.10;99.90;;;;;;5081338;28;20110;-43
2023/01/17 14:06:34;;;;;;;2.13;1.85;;;4.10;99.90;;;;;;5079630;28;20057;-43
2023/01/17 14:09:20;;;;;;;2.58;1.80;;;4.10;99.90;;;;;;5070939;28;20032;-44
2023/01/17 14:12:21;;;;;;;2.40;2.20;;;4.10;99.90;;;;;;5066670;28;20826;-44
2023/01/17 14:14:50;;;;;;;3.05;2.13;;;4.10;99.90;;;;;;5080365;28;20120;-43
2023/01/17 14:17:24;;;;;;;1.92;1.60;;;4.10;99.90;;;;;;5080642;28;20138;-44
2023/01/17 14:19:51;;;;;;;4.03;1.90;;;4.10;99.90;;;;;;5081109;28;20028;-44
2023/01/17 14:22:20;;;;;;;2.97;1.90;;;4.10;99.90;;;;;;5081998;28;20062;-43
2023/01/17 14:25:18;;;;;;;2.45;1.77;;;4.20;99.90;;;;;;5085312;28;20046;-43
2023/01/17 14:27:51;;;;;;;2.88;1.90;;;4.10;99.90;;;;;;5084113;28;20098;-44
2023/01/17 14:30:32;;;;;;;3.50;1.50;;;4.20;99.90;;;;;;5084333;28;20038;-43
2023/01/17 14:32:57;;;;;;;2.05;1.70;;;4.10;99.90;;;;;;5085103;28;20063;-43
2023/01/17 14:35:26;;;;;;;3.60;1.70;;;4.10;99.90;;;;;;5083287;28;20158;-43
2023/01/17 14:37:53;;;;;;;2.90;1.73;;;4.10;99.90;;;;;;5084111;28;20020;-43
2023/01/17 14:40:26;;;;;;;2.47;1.70;;;4.10;99.90;;;;;;5084045;28;20092;-43
2023/01/17 14:43:11;;;;;;;2.20;2.00;;;4.10;99.90;;;;;;5083441;28;20052;-43
2023/01/17 14:45:37;;;;;;;3.53;1.67;;;4.00;99.90;;;;;;5084821;28;20024;-43